TTPP Airport Information

Runway Information
Runway 10 Length 10500 ft width 150 ft
Elevation 30 ft Threshold 0 ft Heading 90
Runway 28 Length 10500 ft Width 150 ft
Elevation 58 ft Threshold 0 ft Heading 270
Airport Frequencies
Type ACC Name ACC Frequency 123.7 MHZ
Type APP Name APP Frequency 119 MHZ
Type ATIS Name ATIS Frequency 126.7 MHZ
Type GND Name GND Frequency 121.9 MHZ
Type MISC Name APRON Frequency 121.75 MHZ
Type RDO Name RDO Frequency 552.6 MHZ
Type TWR Name TWR Frequency 118.1 MHZ
Airport Navaids
Type VOR-DME Name Piarco Frequency 116900 KHZ
Type NDB Name Piarco Frequency 382 KHZ
Airport Weather Information & NOTAM
TTPP 082100Z 09013KT 9999 FEW025 30/22 Q1011 NOSIG